VTSE/CJM METAR and TAF weather

Enter ICAO airport designator
Station Type Date Time Source
VTSE METAR 2021/09/25 11:00 UTC NOAA

VTSE 251100Z 25005KT 230V290 9999 FEW020 SCT100 27/24 Q1006 NOSIG


Station Type Date Time Source
VTSE Decoded METAR 2021/09/25 11:00 UTC NOAA

Station name not available
Sep 25, 2021 - 07:00 AM EDT / 2021.09.25 1100 UTC
Wind: from the WSW (250 degrees) at 6 MPH (5 KT) (direction variable):0
Visibility: greater than 7 mile(s):0
Sky conditions: partly cloudy
Temperature: 80 F (27 C)
Dew Point: 75 F (24 C)
Relative Humidity: 83%
Pressure (altimeter): 29.71 in. Hg (1006 hPa)
ob: VTSE 251100Z 25005KT 230V290 9999 FEW020 SCT100 27/24 Q1006 NOSIG
cycle: 11

Station Type Date Time Source
VTSE TAF 2021/09/25 12:00 UTC NOAA

TAF VTSE 251100Z 2512/2612 28005KT 9999 SCT020 BKN100
TEMPO 2512/2518 4000 RA
TEMPO 2600/2612 4000 RA

Example: see airport list